Time;durP1;ratioP1;P1;durP2;ratioP2;P2;SDS_P1;SDS_P2;PMS_P1;PMS_P2;Temp;Humidity;BMP_temperature;BMP_pressure;BME280_temperature;BME280_humidity;BME280_pressure;Samples;Min_cycle;Max_cycle;Signal;HPM_P1;HPM_P2
2022/07/24 00:00:00;;;;;;;12.55;7.30;;;26.60;88.40;;;;;;5071700;28;20031;-73
2022/07/24 00:03:04;;;;;;;11.43;7.45;;;26.50;89.40;;;;;;5071887;28;20063;-71
2022/07/24 00:06:08;;;;;;;13.80;7.50;;;26.50;90.30;;;;;;5071844;28;20063;-73
2022/07/24 00:09:12;;;;;;;11.27;7.72;;;26.50;90.70;;;;;;5072030;28;20426;-73
2022/07/24 00:12:16;;;;;;;11.73;7.40;;;26.40;91.00;;;;;;5071115;28;20049;-71
2022/07/24 00:15:20;;;;;;;17.50;8.18;;;26.40;91.30;;;;;;5067547;28;20502;-72
2022/07/24 00:18:25;;;;;;;11.90;7.80;;;26.40;92.40;;;;;;5071314;28;20044;-70
2022/07/24 00:21:29;;;;;;;13.02;7.88;;;26.30;93.30;;;;;;5071111;28;20502;-71
2022/07/24 00:24:33;;;;;;;14.60;9.18;;;26.20;94.20;;;;;;5070339;28;20383;-73
2022/07/24 00:27:37;;;;;;;18.08;8.73;;;26.20;95.10;;;;;;5070926;28;20044;-73
2022/07/24 00:30:41;;;;;;;14.98;8.98;;;26.20;95.60;;;;;;5071200;28;20055;-73
2022/07/24 00:33:45;;;;;;;15.60;9.10;;;26.20;96.10;;;;;;5069943;28;20044;-71
2022/07/24 00:36:49;;;;;;;18.58;8.63;;;26.20;96.70;;;;;;5070935;28;20044;-73
2022/07/24 00:39:53;;;;;;;16.58;9.52;;;26.10;97.00;;;;;;5070877;28;20364;-72
2022/07/24 00:42:58;;;;;;;15.13;9.45;;;26.10;97.50;;;;;;5070951;28;20043;-73
2022/07/24 00:46:02;;;;;;;16.63;10.25;;;26.10;97.60;;;;;;5070061;28;20134;-73
2022/07/24 00:49:08;;;;;;;16.60;9.20;;;26.00;97.10;;;;;;5071141;28;20490;-71
2022/07/24 00:52:12;;;;;;;13.30;9.38;;;25.90;97.00;;;;;;5070530;28;20398;-73
2022/07/24 00:55:17;;;;;;;23.10;9.20;;;25.90;97.10;;;;;;5070748;28;20043;-73
2022/07/24 00:58:21;;;;;;;12.65;8.77;;;25.80;97.00;;;;;;5070920;28;20051;-72
2022/07/24 01:01:25;;;;;;;14.55;8.80;;;25.80;97.10;;;;;;5070382;28;20044;-72
2022/07/24 01:04:29;;;;;;;13.18;9.32;;;25.70;97.00;;;;;;5070244;28;20055;-72
2022/07/24 01:07:33;;;;;;;14.98;9.10;;;25.70;97.00;;;;;;5070691;28;20055;-73
2022/07/24 01:10:38;;;;;;;13.15;8.85;;;25.60;97.00;;;;;;5070701;28;20056;-73
2022/07/24 01:13:42;;;;;;;14.57;8.65;;;25.60;97.10;;;;;;5069855;28;20600;-73
2022/07/24 01:16:46;;;;;;;16.30;8.93;;;25.60;97.70;;;;;;5070205;28;20040;-73
2022/07/24 01:19:50;;;;;;;15.88;9.07;;;25.50;98.10;;;;;;5070488;28;20414;-72
2022/07/24 01:22:54;;;;;;;16.02;9.65;;;25.50;98.10;;;;;;5070307;28;20071;-73
2022/07/24 01:25:58;;;;;;;13.63;9.60;;;25.50;98.40;;;;;;5070558;28;20047;-73
2022/07/24 01:29:02;;;;;;;18.30;11.23;;;25.40;99.00;;;;;;5070472;28;20048;-72
2022/07/24 01:32:06;;;;;;;20.67;12.15;;;25.40;99.90;;;;;;5070164;28;20051;-73
2022/07/24 01:35:10;;;;;;;15.75;11.60;;;25.30;99.90;;;;;;5068547;28;20052;-73
2022/07/24 01:38:15;;;;;;;21.48;12.80;;;25.40;99.90;;;;;;5070535;28;20039;-72
2022/07/24 01:41:19;;;;;;;17.20;11.32;;;25.40;99.90;;;;;;5070156;28;20036;-73
2022/07/24 01:44:24;;;;;;;18.08;12.13;;;25.40;99.90;;;;;;5069966;28;20402;-73
2022/07/24 01:47:28;;;;;;;22.90;12.88;;;25.40;99.90;;;;;;5070140;28;20044;-72
2022/07/24 01:50:32;;;;;;;21.25;12.45;;;25.40;99.90;;;;;;5070113;28;20490;-72
2022/07/24 01:53:36;;;;;;;18.08;12.27;;;25.40;99.90;;;;;;5069461;28;20404;-72
2022/07/24 01:56:39;;;;;;;20.85;13.48;;;25.30;99.90;;;;;;5070735;28;20048;-72
2022/07/24 01:59:43;;;;;;;21.90;13.88;;;25.20;99.90;;;;;;5074119;28;20044;-72
2022/07/24 02:02:47;;;;;;;27.30;14.10;;;25.20;99.90;;;;;;5073994;28;20063;-73
2022/07/24 02:05:51;;;;;;;30.33;14.48;;;25.10;99.90;;;;;;5074047;28;20119;-72
2022/07/24 02:08:55;;;;;;;26.63;15.02;;;25.10;99.90;;;;;;5073916;28;20063;-72
2022/07/24 02:11:59;;;;;;;34.72;15.68;;;25.10;99.90;;;;;;5073242;28;20526;-72
2022/07/24 02:15:04;;;;;;;25.38;15.35;;;25.00;99.90;;;;;;5073146;28;20044;-72
2022/07/24 02:18:08;;;;;;;24.58;14.20;;;25.10;99.90;;;;;;5073789;28;20582;-72
2022/07/24 02:21:13;;;;;;;24.55;15.30;;;25.00;99.90;;;;;;5073842;28;20502;-73
2022/07/24 02:24:17;;;;;;;25.67;15.52;;;25.00;99.90;;;;;;5072232;28;20044;-72
2022/07/24 02:27:20;;;;;;;20.23;15.35;;;25.00;99.90;;;;;;5073593;28;20044;-72
2022/07/24 02:30:25;;;;;;;25.20;14.82;;;25.00;99.90;;;;;;5073528;28;20383;-73
2022/07/24 02:33:29;;;;;;;27.38;15.15;;;25.00;99.90;;;;;;5072370;28;20395;-73
2022/07/24 02:36:33;;;;;;;22.17;14.20;;;25.00;99.90;;;;;;5073579;28;20043;-73
2022/07/24 02:39:37;;;;;;;19.88;12.27;;;24.90;99.90;;;;;;5073317;28;20498;-72
2022/07/24 02:42:42;;;;;;;19.48;11.07;;;24.90;99.90;;;;;;5049397;28;20047;-72
2022/07/24 02:45:45;;;;;;;15.65;10.80;;;24.80;99.90;;;;;;5074117;28;20044;-73
2022/07/24 02:48:50;;;;;;;21.50;10.85;;;24.70;99.90;;;;;;5073375;28;20068;-72
2022/07/24 02:51:54;;;;;;;14.90;10.50;;;24.60;99.90;;;;;;5073523;28;20052;-72
2022/07/24 02:54:58;;;;;;;17.08;10.70;;;24.60;99.90;;;;;;5072822;28;20047;-72
2022/07/24 02:58:03;;;;;;;14.32;10.23;;;24.60;99.90;;;;;;5073157;28;20044;-73
2022/07/24 03:01:07;;;;;;;14.65;10.10;;;24.60;99.90;;;;;;5072870;28;20391;-72
2022/07/24 03:04:11;;;;;;;18.80;10.15;;;24.60;99.90;;;;;;5060106;28;20063;-72
2022/07/24 03:07:15;;;;;;;15.90;10.35;;;24.50;99.90;;;;;;5068512;28;20047;-73
2022/07/24 03:10:19;;;;;;;15.40;11.05;;;24.60;99.90;;;;;;5072948;28;20051;-73
2022/07/24 03:13:24;;;;;;;18.70;10.98;;;24.50;99.90;;;;;;5071977;28;20509;-72
2022/07/24 03:16:29;;;;;;;20.38;12.02;;;24.60;99.90;;;;;;5072906;28;20055;-73
2022/07/24 03:19:33;;;;;;;16.33;10.60;;;24.50;99.90;;;;;;5072227;28;20040;-73
2022/07/24 03:22:37;;;;;;;15.70;11.57;;;24.50;99.90;;;;;;5072652;28;20040;-73
2022/07/24 03:25:41;;;;;;;18.17;11.88;;;24.50;99.90;;;;;;5060213;28;20490;-73
2022/07/24 03:28:45;;;;;;;18.17;13.35;;;24.50;99.90;;;;;;5072586;28;20379;-72
2022/07/24 03:31:49;;;;;;;22.15;13.52;;;24.50;99.90;;;;;;5072344;28;20048;-73
2022/07/24 03:34:54;;;;;;;25.35;15.02;;;24.50;99.90;;;;;;5071595;28;20040;-73
2022/07/24 03:37:58;;;;;;;21.58;15.15;;;24.50;99.90;;;;;;5072185;28;20039;-72
2022/07/24 03:41:02;;;;;;;24.70;15.35;;;24.50;99.90;;;;;;5072323;28;20052;-73
2022/07/24 03:44:06;;;;;;;26.80;15.63;;;24.40;99.90;;;;;;5071723;28;20051;-72
2022/07/24 03:47:10;;;;;;;22.08;15.30;;;24.40;99.90;;;;;;5072280;28;20509;-72
2022/07/24 03:50:14;;;;;;;20.95;14.75;;;24.30;99.90;;;;;;5059759;28;20365;-73
2022/07/24 03:53:18;;;;;;;25.20;14.20;;;24.30;99.90;;;;;;5071506;28;20047;-73
2022/07/24 03:56:22;;;;;;;19.15;13.57;;;24.30;99.90;;;;;;5072229;28;20044;-72
2022/07/24 03:59:26;;;;;;;17.40;12.13;;;24.20;99.90;;;;;;5071907;28;20387;-72
2022/07/24 04:02:30;;;;;;;18.80;10.98;;;24.10;99.90;;;;;;5071843;28;20039;-73
2022/07/24 04:05:34;;;;;;;16.15;10.88;;;24.10;99.90;;;;;;5071531;28;20048;-72
2022/07/24 04:08:38;;;;;;;19.70;10.35;;;24.10;99.90;;;;;;5072027;28;20044;-73
2022/07/24 04:11:44;;;;;;;15.02;11.10;;;24.10;99.90;;;;;;5071441;28;20039;-73
2022/07/24 04:14:48;;;;;;;18.30;11.15;;;24.20;99.90;;;;;;5070817;28;20497;-73
2022/07/24 04:17:52;;;;;;;19.75;10.73;;;24.20;99.90;;;;;;5071320;28;20033;-73
2022/07/24 04:20:56;;;;;;;19.15;11.05;;;24.30;99.90;;;;;;5070707;28;20498;-73
2022/07/24 04:24:00;;;;;;;17.98;10.48;;;24.40;99.90;;;;;;5070721;28;20494;-73
2022/07/24 04:27:04;;;;;;;20.63;11.35;;;24.40;99.90;;;;;;5071323;28;20387;-73
2022/07/24 04:30:08;;;;;;;18.65;10.93;;;24.50;99.90;;;;;;5070710;28;20047;-73
2022/07/24 04:33:12;;;;;;;18.00;11.18;;;24.50;99.90;;;;;;5070387;28;20035;-73
2022/07/24 04:36:16;;;;;;;19.60;12.07;;;24.50;99.90;;;;;;5071304;28;20047;-73
2022/07/24 04:39:20;;;;;;;24.17;12.02;;;24.60;99.90;;;;;;5071139;28;20039;-73
2022/07/24 04:42:24;;;;;;;22.77;13.65;;;24.60;99.90;;;;;;5071014;28;20032;-73
2022/07/24 04:45:28;;;;;;;22.70;13.77;;;24.70;99.90;;;;;;5070391;28;20040;-73
2022/07/24 04:48:32;;;;;;;19.88;13.50;;;24.80;99.90;;;;;;5070560;28;20035;-73
2022/07/24 04:51:35;;;;;;;20.00;12.88;;;25.20;99.90;;;;;;5070760;28;20048;-73
2022/07/24 04:54:39;;;;;;;21.65;13.23;;;26.50;99.90;;;;;;5070044;28;20055;-73
2022/07/24 04:57:43;;;;;;;14.82;11.38;;;27.80;99.90;;;;;;5070902;28;20063;-73
2022/07/24 05:00:49;;;;;;;18.73;12.10;;;28.80;99.90;;;;;;5070480;28;20043;-73
2022/07/24 05:03:53;;;;;;;20.02;12.13;;;29.80;99.90;;;;;;5070300;28;20043;-73
2022/07/24 05:06:57;;;;;;;17.75;10.55;;;30.50;99.90;;;;;;5070795;28;20399;-73
2022/07/24 05:10:02;;;;;;;15.85;10.52;;;31.10;99.90;;;;;;5070328;28;20098;-71
2022/07/24 05:13:06;;;;;;;18.88;10.57;;;31.70;99.90;;;;;;5070487;28;20036;-73
2022/07/24 05:16:10;;;;;;;15.70;10.43;;;32.20;99.90;;;;;;5070199;28;20058;-73
2022/07/24 05:19:14;;;;;;;16.80;9.20;;;32.70;99.10;;;;;;5070508;28;20043;-73
2022/07/24 05:22:18;;;;;;;17.98;9.55;;;33.00;96.80;;;;;;5070312;28;20047;-73
2022/07/24 05:25:22;;;;;;;12.07;8.70;;;33.40;95.70;;;;;;5069342;28;20043;-73
2022/07/24 05:28:26;;;;;;;15.32;8.88;;;33.90;94.40;;;;;;5070626;28;20506;-73
2022/07/24 05:31:30;;;;;;;15.73;9.20;;;34.40;93.30;;;;;;5070282;28;20039;-73
2022/07/24 05:34:34;;;;;;;17.08;10.05;;;34.80;92.80;;;;;;5069157;28;20051;-73
2022/07/24 05:37:38;;;;;;;13.60;9.15;;;35.00;92.90;;;;;;5070557;28;20115;-72
2022/07/24 05:40:42;;;;;;;15.35;8.95;;;35.40;92.40;;;;;;5070196;28;20040;-73
2022/07/24 05:43:46;;;;;;;22.52;10.02;;;35.80;91.60;;;;;;5069779;28;20238;-73
2022/07/24 05:46:50;;;;;;;15.98;10.35;;;36.10;91.90;;;;;;5057900;28;20043;-73
2022/07/24 05:49:54;;;;;;;14.32;9.85;;;36.20;91.80;;;;;;5070060;28;20051;-73
2022/07/24 05:52:58;;;;;;;13.40;9.52;;;36.40;91.60;;;;;;5070027;28;20052;-72
2022/07/24 05:56:03;;;;;;;13.70;9.88;;;36.10;92.00;;;;;;5070524;28;20043;-73
2022/07/24 05:59:08;;;;;;;17.42;10.80;;;34.90;92.40;;;;;;5070287;28;20048;-72
2022/07/24 06:02:11;;;;;;;16.20;10.20;;;33.10;94.10;;;;;;5070130;28;20044;-72
2022/07/24 06:05:15;;;;;;;18.38;9.85;;;32.30;96.30;;;;;;5069495;28;20395;-72
2022/07/24 06:08:20;;;;;;;15.88;9.82;;;31.90;96.80;;;;;;5069604;28;20042;-72
2022/07/24 06:11:24;;;;;;;14.63;9.57;;;32.20;97.00;;;;;;5069814;28;20043;-72
2022/07/24 06:14:28;;;;;;;13.30;8.98;;;32.50;96.60;;;;;;5069409;28;20047;-72
2022/07/24 06:17:33;;;;;;;11.10;8.85;;;33.20;95.80;;;;;;5069662;28;20118;-73
2022/07/24 06:20:37;;;;;;;21.50;11.68;;;33.90;95.10;;;;;;5069749;28;20047;-72
2022/07/24 06:23:40;;;;;;;15.15;9.57;;;33.60;95.00;;;;;;5068293;28;20040;-72
2022/07/24 06:26:44;;;;;;;13.50;9.13;;;34.00;95.10;;;;;;5069725;28;20051;-72
2022/07/24 06:29:48;;;;;;;9.90;8.23;;;34.80;94.30;;;;;;5069915;28;20067;-72
2022/07/24 06:32:58;;;;;;;11.15;8.30;;;35.30;93.40;;;;;;5069506;28;20062;-72
2022/07/24 06:36:02;;;;;;;14.63;8.30;;;36.10;92.90;;;;;;5069662;28;20051;-72
2022/07/24 06:39:07;;;;;;;14.10;8.00;;;36.70;92.00;;;;;;5069942;28;20092;-72
2022/07/24 06:42:11;;;;;;;12.30;7.40;;;36.80;91.80;;;;;;5065349;28;20047;-72
2022/07/24 06:45:15;;;;;;;11.50;8.10;;;37.10;91.10;;;;;;5073173;28;20052;-72
2022/07/24 06:48:19;;;;;;;11.07;7.22;;;37.00;90.50;;;;;;5073514;28;20056;-72
2022/07/24 06:51:23;;;;;;;18.48;7.85;;;37.20;90.00;;;;;;5073567;28;20043;-72
2022/07/24 06:54:27;;;;;;;13.95;7.43;;;37.40;88.70;;;;;;5072505;28;20044;-72
2022/07/24 06:57:32;;;;;;;12.90;8.20;;;37.80;88.10;;;;;;5073103;28;20044;-72
2022/07/24 07:00:36;;;;;;;16.08;7.60;;;38.30;86.20;;;;;;5072704;28;20064;-72
2022/07/24 07:03:40;;;;;;;13.32;6.68;;;38.70;84.40;;;;;;5059966;28;20055;-72
2022/07/24 07:06:44;;;;;;;14.40;6.80;;;38.60;84.50;;;;;;5072759;28;20063;-72
2022/07/24 07:09:48;;;;;;;14.02;6.68;;;39.10;83.10;;;;;;5072865;28;20055;-72
2022/07/24 07:12:52;;;;;;;14.80;7.22;;;39.40;81.70;;;;;;5073055;28;20498;-73
2022/07/24 07:15:56;;;;;;;12.13;6.75;;;39.90;80.70;;;;;;5072707;28;20039;-72
2022/07/24 07:19:00;;;;;;;12.75;6.90;;;40.40;79.00;;;;;;5072573;28;20044;-72
2022/07/24 07:22:04;;;;;;;11.88;6.55;;;40.70;77.90;;;;;;5072869;28;20048;-72
2022/07/24 07:25:09;;;;;;;11.45;5.75;;;40.90;77.20;;;;;;5071643;28;20368;-72
2022/07/24 07:28:13;;;;;;;11.50;6.63;;;41.50;75.30;;;;;;5068480;28;20052;-72
2022/07/24 07:31:18;;;;;;;11.15;6.18;;;41.80;74.90;;;;;;5072394;28;20055;-72
2022/07/24 07:34:22;;;;;;;11.82;6.90;;;41.20;74.30;;;;;;5071812;28;20048;-72
2022/07/24 07:37:27;;;;;;;10.75;7.07;;;39.30;76.00;;;;;;5070672;28;20051;-72
2022/07/24 07:40:31;;;;;;;10.85;6.57;;;39.60;76.10;;;;;;5072126;28;20040;-72
2022/07/24 07:43:35;;;;;;;7.85;6.40;;;40.40;75.70;;;;;;5071880;28;20047;-72
2022/07/24 07:46:39;;;;;;;11.75;6.43;;;41.10;74.70;;;;;;5072286;28;20043;-72
2022/07/24 07:49:43;;;;;;;19.20;7.80;;;41.60;73.60;;;;;;5072200;28;20395;-70
2022/07/24 07:52:47;;;;;;;11.38;5.50;;;41.80;73.00;;;;;;5072124;28;20055;-72
2022/07/24 07:55:51;;;;;;;11.30;5.90;;;42.60;71.40;;;;;;5070853;28;20043;-72
2022/07/24 07:58:55;;;;;;;7.72;4.72;;;43.30;69.50;;;;;;5072175;28;20044;-72
2022/07/24 08:01:59;;;;;;;7.97;4.80;;;43.60;68.90;;;;;;5072078;28;20051;-72
2022/07/24 08:05:05;;;;;;;10.95;5.35;;;44.30;67.90;;;;;;5065791;28;20051;-71
2022/07/24 08:08:12;;;;;;;8.05;4.85;;;44.70;66.30;;;;;;5071827;28;20047;-72
2022/07/24 08:11:16;;;;;;;10.60;5.13;;;45.10;66.10;;;;;;5071743;28;20052;-72
2022/07/24 08:14:20;;;;;;;9.48;4.70;;;45.50;65.30;;;;;;5071105;28;20422;-72
2022/07/24 08:17:24;;;;;;;9.30;5.28;;;45.70;64.60;;;;;;5072056;28;20059;-72
2022/07/24 08:20:28;;;;;;;10.95;5.65;;;45.50;65.00;;;;;;5071447;28;20383;-72
2022/07/24 08:23:32;;;;;;;9.82;4.75;;;45.00;64.90;;;;;;5069855;28;20055;-72
2022/07/24 08:26:36;;;;;;;9.52;4.88;;;44.90;63.90;;;;;;5071471;28;20043;-72
2022/07/24 08:29:41;;;;;;;8.07;4.22;;;45.10;64.00;;;;;;5071497;28;20558;-72
2022/07/24 08:32:46;;;;;;;9.68;4.60;;;45.30;61.80;;;;;;5070601;28;20048;-72
2022/07/24 08:35:50;;;;;;;8.57;4.75;;;43.10;61.20;;;;;;5071447;28;20055;-72
2022/07/24 08:38:55;;;;;;;8.95;4.47;;;43.30;64.20;;;;;;5071241;28;20398;-72
2022/07/24 08:42:00;;;;;;;8.18;4.35;;;44.40;61.90;;;;;;5071031;28;20497;-72
2022/07/24 08:45:05;;;;;;;9.82;4.60;;;45.80;60.90;;;;;;5052872;28;20051;-72
2022/07/24 08:48:10;;;;;;;7.28;4.18;;;46.10;60.20;;;;;;5066167;28;20048;-70
2022/07/24 08:51:14;;;;;;;7.75;3.72;;;46.40;60.20;;;;;;5071281;28;20039;-72
2022/07/24 08:54:19;;;;;;;9.90;4.32;;;46.40;59.70;;;;;;5070659;28;20051;-72
2022/07/24 08:57:23;;;;;;;7.15;3.88;;;47.00;59.20;;;;;;5070030;28;20536;-70
2022/07/24 09:00:28;;;;;;;6.90;3.83;;;47.70;58.40;;;;;;5071076;28;20414;-73
2022/07/24 09:03:42;;;;;;;9.30;4.20;;;47.70;57.90;;;;;;5057934;28;20407;-72
2022/07/24 09:06:57;;;;;;;7.95;4.20;;;47.60;57.60;;;;;;5070268;28;20063;-72
2022/07/24 09:10:10;;;;;;;8.70;3.80;;;47.80;57.90;;;;;;5070713;28;20051;-72
2022/07/24 09:13:17;;;;;;;8.95;4.18;;;48.00;57.10;;;;;;5070413;28;20497;-72
2022/07/24 09:16:23;;;;;;;4.45;3.60;;;48.40;56.70;;;;;;5070543;28;20051;-72
2022/07/24 09:19:29;;;;;;;11.05;4.22;;;47.40;57.10;;;;;;5070672;28;20094;-72
2022/07/24 09:22:40;;;;;;;11.65;4.07;;;48.00;56.90;;;;;;5070846;28;20052;-73
2022/07/24 09:25:54;;;;;;;7.22;3.92;;;47.70;56.50;;;;;;5070613;28;20509;-72
2022/07/24 09:28:57;;;;;;;8.45;4.03;;;44.80;57.80;;;;;;5070542;28;20383;-72
2022/07/24 09:32:03;;;;;;;8.20;3.72;;;46.80;57.70;;;;;;5070345;28;20063;-74
2022/07/24 09:35:07;;;;;;;6.03;3.63;;;48.30;56.70;;;;;;5069695;28;20497;-73
2022/07/24 09:38:23;;;;;;;7.45;4.00;;;50.10;54.90;;;;;;5070185;28;20040;-72
2022/07/24 09:41:27;;;;;;;10.13;4.35;;;50.60;54.90;;;;;;5070171;28;20034;-71
2022/07/24 09:44:31;;;;;;;8.27;3.35;;;51.00;54.80;;;;;;5068783;28;20051;-73
2022/07/24 09:47:36;;;;;;;5.15;3.15;;;51.30;54.60;;;;;;5070078;28;20055;-72
2022/07/24 09:50:49;;;;;;;9.07;2.95;;;52.30;52.30;;;;;;5070261;28;20055;-72
2022/07/24 09:53:59;;;;;;;7.68;3.20;;;51.80;51.70;;;;;;5069584;28;20391;-73
2022/07/24 09:57:24;;;;;;;6.20;3.28;;;51.60;51.90;;;;;;5070327;28;20040;-74
2022/07/24 10:00:29;;;;;;;7.22;3.17;;;51.00;52.30;;;;;;5070049;28;20046;-72
2022/07/24 10:03:35;;;;;;;7.05;3.53;;;50.60;52.60;;;;;;5069183;28;20052;-72
2022/07/24 10:06:42;;;;;;;4.75;3.20;;;51.50;52.70;;;;;;5069884;28;20605;-72
2022/07/24 10:09:49;;;;;;;6.40;3.63;;;52.20;51.80;;;;;;5057491;28;20051;-73
2022/07/24 10:12:54;;;;;;;8.50;3.47;;;52.50;51.50;;;;;;5069905;28;20052;-73
2022/07/24 10:16:13;;;;;;;8.20;3.97;;;52.50;51.80;;;;;;5069841;28;20047;-72
2022/07/24 10:19:23;;;;;;;7.45;3.40;;;52.20;52.10;;;;;;5072913;28;20364;-73
2022/07/24 10:22:34;;;;;;;5.60;3.60;;;52.90;51.70;;;;;;5074173;28;20048;-72
2022/07/24 10:26:01;;;;;;;4.68;3.00;;;53.40;51.30;;;;;;5073643;28;20065;-73
2022/07/24 10:29:10;;;;;;;8.68;3.70;;;52.90;51.20;;;;;;5074095;28;20047;-73
2022/07/24 10:32:14;;;;;;;5.63;3.30;;;52.80;51.20;;;;;;5073563;28;20043;-73
2022/07/24 10:35:24;;;;;;;10.77;3.85;;;52.50;51.30;;;;;;5069066;28;20051;-72
2022/07/24 10:38:36;;;;;;;6.78;3.22;;;52.40;51.30;;;;;;5073738;28;20055;-72
2022/07/24 10:41:40;;;;;;;5.18;3.20;;;52.80;51.00;;;;;;5073648;28;20048;-74
2022/07/24 10:45:22;;;;;;;9.55;3.40;;;52.30;51.20;;;;;;5072951;28;20039;-72
2022/07/24 10:48:29;;;;;;;6.75;2.90;;;53.00;51.30;;;;;;5073476;28;20217;-70
2022/07/24 10:51:33;;;;;;;9.52;3.80;;;53.20;50.80;;;;;;5073354;28;20513;-72
2022/07/24 10:54:38;;;;;;;5.90;3.25;;;53.70;50.50;;;;;;5072689;28;20040;-72
2022/07/24 10:57:59;;;;;;;5.70;2.70;;;53.40;50.80;;;;;;5073464;28;20048;-72
2022/07/24 11:01:30;;;;;;;6.43;3.25;;;52.30;49.60;;;;;;5073354;28;20048;-72
2022/07/24 11:04:35;;;;;;;6.47;3.30;;;46.70;49.70;;;;;;5072618;28;20324;-72
2022/07/24 11:08:29;;;;;;;11.93;4.07;;;46.30;52.00;;;;;;5072945;28;20048;-72
2022/07/24 11:11:40;;;;;;;4.72;3.05;;;46.40;52.40;;;;;;5073217;28;20059;-72
2022/07/24 11:14:49;;;;;;;7.88;3.17;;;48.30;51.10;;;;;;5072353;28;20107;-72
2022/07/24 11:17:54;;;;;;;9.80;3.90;;;49.50;50.50;;;;;;5072803;28;20035;-73
2022/07/24 11:21:00;;;;;;;10.23;3.35;;;50.50;49.80;;;;;;5072674;28;20039;-73
2022/07/24 11:24:13;;;;;;;7.15;3.85;;;48.20;50.50;;;;;;5071435;28;20052;-72
2022/07/24 11:27:20;;;;;;;8.15;3.88;;;47.50;53.10;;;;;;5060008;28;20509;-72
2022/07/24 11:30:29;;;;;;;7.75;3.72;;;49.10;52.60;;;;;;5072434;28;20055;-71
2022/07/24 11:33:34;;;;;;;5.35;3.53;;;50.30;52.10;;;;;;5071532;28;20051;-72
2022/07/24 11:36:51;;;;;;;5.85;3.50;;;50.60;52.00;;;;;;5072192;28;20055;-72
2022/07/24 11:39:55;;;;;;;7.28;3.40;;;50.80;51.40;;;;;;5072457;28;20039;-72
2022/07/24 11:43:02;;;;;;;7.55;3.10;;;51.00;50.50;;;;;;5072746;28;20043;-71
2022/07/24 11:56:09;;;;;;;5.13;3.47;;;48.70;50.20;;;;;;5051468;28;20052;-72
2022/07/24 12:09:46;;;;;;;11.90;4.18;;;47.40;51.70;;;;;;5051185;28;20391;-72
2022/07/24 12:12:53;;;;;;;7.72;3.88;;;47.50;52.00;;;;;;5051825;28;20048;-72
2022/07/24 12:15:57;;;;;;;8.63;3.97;;;47.20;52.00;;;;;;5051399;28;20494;-72
2022/07/24 12:19:12;;;;;;;9.10;4.40;;;46.50;52.40;;;;;;5052001;28;20056;-71
2022/07/24 12:22:18;;;;;;;7.15;3.97;;;46.40;52.60;;;;;;5051977;28;20379;-71
2022/07/24 12:25:24;;;;;;;9.88;3.83;;;46.80;52.50;;;;;;5048312;28;20048;-71
2022/07/24 12:28:28;;;;;;;9.75;4.53;;;47.20;52.20;;;;;;5051628;28;20047;-71
2022/07/24 12:31:31;;;;;;;13.25;4.13;;;46.90;52.40;;;;;;5051519;28;20048;-71
2022/07/24 12:34:46;;;;;;;8.20;4.47;;;46.80;52.50;;;;;;5050406;28;20060;-71
2022/07/24 12:37:52;;;;;;;7.13;4.13;;;46.10;52.70;;;;;;5051085;28;20048;-71
2022/07/24 12:41:15;;;;;;;8.93;4.35;;;45.90;52.80;;;;;;5043781;28;20040;-71
2022/07/24 12:44:19;;;;;;;9.02;3.85;;;45.80;53.00;;;;;;5038542;28;20039;-72
2022/07/24 12:47:23;;;;;;;10.75;4.55;;;45.60;53.70;;;;;;5051049;28;20091;-71
2022/07/24 12:50:28;;;;;;;7.55;4.63;;;45.20;54.20;;;;;;5050941;28;20040;-70
2022/07/24 12:53:35;;;;;;;27.67;5.65;;;45.10;54.50;;;;;;5050778;28;20052;-74
2022/07/24 12:56:39;;;;;;;9.50;4.95;;;44.30;54.70;;;;;;5050898;28;20051;-72
2022/07/24 12:59:45;;;;;;;5.68;4.05;;;43.50;55.80;;;;;;5050669;28;20048;-73
2022/07/24 13:02:49;;;;;;;6.00;4.38;;;43.60;55.80;;;;;;5050872;28;20496;-71
2022/07/24 13:05:56;;;;;;;6.88;4.22;;;43.90;55.60;;;;;;5050755;28;20391;-70
2022/07/24 13:09:00;;;;;;;7.10;4.45;;;43.90;55.40;;;;;;5050683;28;20506;-70
2022/07/24 13:12:06;;;;;;;9.65;4.78;;;43.80;56.00;;;;;;5045252;28;20395;-70
2022/07/24 13:15:10;;;;;;;6.78;4.65;;;43.70;55.40;;;;;;5050176;28;20060;-70
2022/07/24 13:18:15;;;;;;;9.55;4.50;;;42.60;56.40;;;;;;5046808;28;20044;-73
2022/07/24 13:21:19;;;;;;;6.88;4.50;;;42.30;56.70;;;;;;5050431;28;20040;-72
2022/07/24 13:24:23;;;;;;;10.85;4.40;;;42.20;57.20;;;;;;5049782;28;20044;-72
2022/07/24 13:27:27;;;;;;;5.93;4.72;;;42.30;56.60;;;;;;5050308;28;20490;-72
2022/07/24 13:30:32;;;;;;;9.43;5.35;;;42.20;57.40;;;;;;5050482;28;20040;-72
2022/07/24 13:33:36;;;;;;;9.52;5.05;;;41.80;57.30;;;;;;5049918;28;20409;-73
2022/07/24 13:36:41;;;;;;;9.18;5.00;;;42.00;57.60;;;;;;5036570;28;20424;-72
2022/07/24 13:39:45;;;;;;;10.18;5.05;;;41.20;57.80;;;;;;5050667;28;20048;-72
2022/07/24 13:42:49;;;;;;;10.02;5.53;;;38.80;61.00;;;;;;5050445;28;20495;-70
2022/07/24 13:45:53;;;;;;;9.35;5.00;;;39.80;60.60;;;;;;5050422;28;20048;-73
2022/07/24 13:48:59;;;;;;;10.25;5.88;;;40.80;59.80;;;;;;5051054;28;20056;-73
2022/07/24 13:52:03;;;;;;;10.23;5.18;;;40.00;59.90;;;;;;5052109;28;20063;-72
2022/07/24 13:55:07;;;;;;;10.77;6.03;;;39.80;60.20;;;;;;5054460;28;20048;-73
2022/07/24 13:58:12;;;;;;;7.45;5.10;;;37.70;63.10;;;;;;5054633;28;20526;-72
2022/07/24 14:01:17;;;;;;;10.43;5.63;;;38.80;62.20;;;;;;5054638;28;20052;-73
2022/07/24 14:04:21;;;;;;;8.93;5.35;;;39.70;61.50;;;;;;5054439;28;20085;-73
2022/07/24 14:07:25;;;;;;;11.05;5.63;;;40.20;60.70;;;;;;5054640;28;20044;-72
2022/07/24 14:10:29;;;;;;;7.40;4.90;;;40.10;60.80;;;;;;5055025;28;20056;-72
2022/07/24 14:13:33;;;;;;;7.30;5.30;;;40.40;60.50;;;;;;5054252;28;20044;-71
2022/07/24 14:16:37;;;;;;;9.05;5.43;;;40.20;60.10;;;;;;5054415;28;20036;-72
2022/07/24 14:19:42;;;;;;;8.35;4.80;;;39.80;60.90;;;;;;5054391;28;20036;-72
2022/07/24 14:22:45;;;;;;;10.45;4.90;;;39.90;61.10;;;;;;5054521;28;20036;-73
2022/07/24 14:25:50;;;;;;;11.55;5.20;;;40.00;61.10;;;;;;5054138;28;20044;-72
2022/07/24 14:28:53;;;;;;;8.85;5.22;;;40.00;61.30;;;;;;5054173;28;20048;-73
2022/07/24 14:31:58;;;;;;;9.07;4.95;;;40.10;61.20;;;;;;5041816;28;20068;-72
2022/07/24 14:35:05;;;;;;;8.57;4.78;;;39.90;61.50;;;;;;5053660;28;20044;-72
2022/07/24 14:38:10;;;;;;;10.57;4.95;;;39.90;61.50;;;;;;5041867;28;20044;-73
2022/07/24 14:41:14;;;;;;;11.52;5.43;;;39.80;61.40;;;;;;5054123;28;20055;-72
2022/07/24 14:44:18;;;;;;;8.95;4.95;;;39.70;61.80;;;;;;5053821;28;20039;-72
2022/07/24 14:47:22;;;;;;;7.35;4.63;;;39.70;62.10;;;;;;5054602;28;20044;-72
2022/07/24 14:50:26;;;;;;;11.50;5.43;;;39.50;62.10;;;;;;5053766;28;20491;-72
2022/07/24 14:53:30;;;;;;;6.75;4.43;;;39.30;62.60;;;;;;5053698;28;20397;-72
2022/07/24 14:56:35;;;;;;;7.30;4.88;;;39.40;62.40;;;;;;5053500;28;20064;-73
2022/07/24 14:59:40;;;;;;;8.88;4.95;;;38.80;62.80;;;;;;5053627;28;20048;-72
2022/07/24 15:02:44;;;;;;;8.85;4.72;;;39.00;62.60;;;;;;5053531;28;20047;-72
2022/07/24 15:05:48;;;;;;;8.95;4.63;;;39.10;62.70;;;;;;5053818;28;20040;-73
2022/07/24 15:08:52;;;;;;;8.82;4.80;;;39.00;63.00;;;;;;5053624;28;20056;-72
2022/07/24 15:11:57;;;;;;;15.00;4.95;;;38.80;63.10;;;;;;5041189;28;20052;-72
2022/07/24 15:15:02;;;;;;;6.40;4.30;;;39.00;63.30;;;;;;5053432;28;20052;-74
2022/07/24 15:18:07;;;;;;;10.73;4.70;;;38.90;62.90;;;;;;5053427;28;20643;-73
2022/07/24 15:21:11;;;;;;;10.07;4.68;;;38.60;63.40;;;;;;5053352;28;20044;-72
2022/07/24 15:24:15;;;;;;;6.30;4.60;;;38.60;63.50;;;;;;5041068;28;20523;-69
2022/07/24 15:27:19;;;;;;;9.88;5.13;;;38.70;63.20;;;;;;5053945;28;20044;-71
2022/07/24 15:30:23;;;;;;;10.27;4.85;;;38.60;63.50;;;;;;5053501;28;20510;-70
2022/07/24 15:33:27;;;;;;;7.72;4.47;;;38.40;63.60;;;;;;5052641;28;20204;-71
2022/07/24 15:36:31;;;;;;;7.05;4.18;;;38.30;63.80;;;;;;5052778;28;20048;-70
2022/07/24 15:39:36;;;;;;;8.25;4.70;;;38.00;64.50;;;;;;5053422;28;20044;-70
2022/07/24 15:42:40;;;;;;;11.55;5.35;;;37.70;64.70;;;;;;5052816;28;20044;-72
2022/07/24 15:45:44;;;;;;;13.73;5.07;;;37.60;64.90;;;;;;5052994;28;20055;-72
2022/07/24 15:48:48;;;;;;;6.43;5.00;;;37.50;65.30;;;;;;5052753;28;20040;-71
2022/07/24 15:51:52;;;;;;;7.72;4.70;;;37.40;65.30;;;;;;5052715;28;20052;-71
2022/07/24 15:54:56;;;;;;;9.43;5.22;;;37.20;65.50;;;;;;5052268;28;20055;-72
2022/07/24 15:58:00;;;;;;;10.27;5.32;;;37.10;65.80;;;;;;5040629;28;20036;-69
2022/07/24 16:01:05;;;;;;;9.13;5.32;;;37.00;66.10;;;;;;5052142;28;20048;-73
2022/07/24 16:04:09;;;;;;;7.95;5.20;;;37.00;66.30;;;;;;5052486;28;20040;-71
2022/07/24 16:07:13;;;;;;;6.90;5.35;;;36.80;66.70;;;;;;5040146;28;20064;-72
2022/07/24 16:10:18;;;;;;;9.93;5.50;;;36.50;67.30;;;;;;5052773;28;20052;-72
2022/07/24 16:13:22;;;;;;;7.47;5.15;;;36.40;67.50;;;;;;5051792;28;20510;-71